Terminal Aerodrome Forecast
Issued by NWS

Home | Current Version | Previous Version | Text Only | Print | Product List | Glossary Off
Versions: 1 2 3 4 5 6 7 8 9 10 11 12 13 14 15

000
FTUS43 KMPX 270526
TAFAXN
TAF
KAXN 270526Z 2706/2806 36006KT P6SM SKC
     FM270800 VRB03KT P6SM SKC
     FM271700 18008KT P6SM BKN120
     FM280000 15007KT P6SM OVC050=

USA.gov is the U.S. government's official web portal to all federal, state and local government web resources and services.